ADDS METAR Data INFO
IDs: Format: Raw Decoded Include TAF

Data at: 1513 UTC 23 Oct 2017

KGSH 231501Z AUTO 00000KT 10SM -RA OVC027 16/13 A2974 RMK AO2 P0000 T01610133
KGSH 231453Z AUTO 00000KT 10SM -RA SCT025 OVC030 16/13 A2975 RMK AO2 SLP072 P0003 60011 T01560133 58025
KGSH 231353Z AUTO 14003KT 5SM -RA SCT019 BKN027 OVC100 16/13 A2978 RMK AO2 SLP080 P0004 T01560128
KGSH 231324Z AUTO 15010KT 6SM -RA SCT017 BKN024 OVC035 16/13 A2980 RMK AO2 P0002 T01560128
KGSH 231253Z AUTO VRB04KT 7SM -RA FEW032 BKN060 OVC070 16/12 A2981 RMK AO2 SLP091 P0004 T01560122
KGSH 231225Z AUTO 11005KT 5SM -RA SCT027 BKN033 OVC060 16/13 A2981 RMK AO2 P0002 T01560128
KGSH 231217Z AUTO 13005KT 6SM -RA BKN028 BKN033 OVC080 16/13 A2982 RMK AO2 P0001 T01610128
KGSH 231200Z AUTO 12003KT 9SM -RA SCT024 BKN032 OVC080 16/13 A2982 RMK AO2 P0000 T01610128
KGSH 231153Z AUTO 13003KT 10SM -RA BKN024 BKN032 OVC080 16/13 A2983 RMK AO2 SLP096 P0002 60004 70004 T01610128 10167 20156 58021
KGSH 231053Z AUTO 12003KT 10SM -RA BKN026 BKN031 OVC100 16/13 A2985 RMK AO2 SLP103 P0001 T01610133 $
KGSH 230953Z AUTO 00000KT 6SM -RA BR BKN095 BKN120 16/14 A2987 RMK AO2 RAB29 SLP110 P0001 T01560139 $
KGSH 230853Z AUTO 00000KT 7SM BKN050 OVC070 16/14 A2989 RMK AO2 SLP117 T01610144 58018 $
KGSH 230753Z AUTO 00000KT 9SM SCT060 16/14 A2991 RMK AO2 SLP124 T01610144 $
KGSH 230653Z AUTO 32003KT 9SM OVC050 17/14 A2993 RMK AO2 SLP133 T01670144 $
KGSH 230553Z AUTO 00000KT 9SM OVC055 17/14 A2994 RMK AO2 SLP136 T01670144 10228 20167 58016 $
KGSH 230453Z AUTO 32003KT 10SM OVC049 17/15 A2996 RMK AO2 SLP142 T01720150 402500144 $
KGSH 230353Z AUTO 31003KT 10SM OVC047 18/16 A2998 RMK AO2 SLP148 T01780156 $
KGSH 230253Z AUTO 00000KT 10SM OVC044 19/16 A2999 RMK AO2 SLP152 T01890156 53000 $
KGSH 230153Z AUTO 26004KT 10SM OVC045 21/14 A2999 RMK AO2 SLP152 T02110139 $
KGSH 230053Z AUTO 18011KT 10SM BKN048 OVC060 22/13 A2999 RMK AO2 SLP150 T02220133 $
KGSH 222353Z AUTO 18013KT 10SM OVC048 23/13 A2999 RMK AO2 SLP153 T02280128 10250 20228 55000 $
KGSH 222253Z AUTO 17013KT 10SM BKN050 OVC110 23/13 A2998 RMK AO2 SLP148 T02280128 $
KGSH 222153Z AUTO 18012KT 10SM FEW045 OVC055 24/13 A2998 RMK AO2 SLP150 T02390133 $
KGSH 222053Z AUTO 18008KT 10SM BKN048 BKN070 OVC090 23/13 A2999 RMK AO2 SLP151 T02330133 55011 $
KGSH 221953Z AUTO 18017G22KT 10SM CLR 24/13 A2998 RMK AO2 SLP150 T02390133 $
KGSH 221853Z AUTO 17017G24KT 10SM CLR 24/13 A2999 RMK AO2 SLP152 T02390133 $
KGSH 221753Z AUTO 18016G25KT 10SM CLR 23/13 A3002 RMK AO2 PK WND 17027/1720 SLP163 T02280128 10239 20144 58014 $
KGSH 221653Z AUTO 20018G22KT 10SM FEW038 FEW046 BKN120 23/13 A3005 RMK AO2 SLP173 T02330133 $
KGSH 221553Z AUTO 18013KT 10SM BKN040 21/13 A3007 RMK AO2 SLP178 T02110128 $
KGSH 221453Z AUTO 18013KT 10SM CLR 19/12 A3006 RMK AO2 SLP177 T01940117 58003 $
KGSH 221353Z AUTO 18015KT 10SM FEW090 18/11 A3008 RMK AO2 SLP185 T01780106 $
KGSH 221253Z AUTO 16011KT 10SM CLR 16/09 A3009 RMK AO2 SLP187 T01610094 $
KGSH 221153Z AUTO 14006KT 10SM CLR 15/08 A3007 RMK AO2 SLP182 T01500083 10172 20144 55001 $
KGSH 221053Z AUTO 16009KT 10SM CLR 16/08 A3007 RMK AO2 SLP179 T01560078 $
KGSH 220953Z AUTO 14007KT 10SM CLR 14/08 A3007 RMK AO2 SLP179 T01440078 $
KGSH 220853Z AUTO 13009KT 10SM CLR 16/08 A3008 RMK AO2 SLP181 T01610078 58013 $
KGSH 220753Z AUTO 15007KT 10SM CLR 16/08 A3009 RMK AO2 SLP186 T01610078 $
KGSH 220653Z AUTO 16005KT 10SM CLR 16/08 A3011 RMK AO2 SLP194 T01560078 $
KGSH 220553Z AUTO 17007KT 10SM CLR 16/08 A3011 RMK AO2 SLP195 T01610078 10189 20161 53003 $
KGSH 220453Z AUTO 17009KT 10SM CLR 17/08 A3010 RMK AO2 SLP192 T01670083 402390122 $
KGSH 220353Z AUTO 17010KT 10SM CLR 18/09 A3011 RMK AO2 SLP193 T01780094 $